createdAt,value
2023-03-29T04:27:08.954Z,-3.48
2023-03-29T04:31:13.522Z,-3.53
2023-03-29T04:35:18.246Z,-3.42
2023-03-29T04:39:22.135Z,-3.35
2023-03-29T04:43:25.691Z,-3.31
2023-03-29T04:47:30.109Z,-3.17
2023-03-29T04:51:33.607Z,-2.97
2023-03-29T04:55:37.373Z,-3.04
2023-03-29T04:59:40.295Z,-2.85
2023-03-29T05:03:43.909Z,-2.65
2023-03-29T05:07:47.338Z,-2.47
2023-03-29T05:11:50.869Z,-2.22
2023-03-29T05:15:54.004Z,-1.98
2023-03-29T05:19:57.144Z,-1.72
2023-03-29T05:24:00.411Z,-1.63
2023-03-29T05:28:07.754Z,-1.60
2023-03-29T05:32:18.951Z,-1.44
2023-03-29T05:36:31.281Z,-1.22
2023-03-29T05:40:35.999Z,-1.01
2023-03-29T05:44:40.958Z,-0.99
2023-03-29T05:48:44.396Z,-0.81
2023-03-29T05:52:53.438Z,-0.68
2023-03-29T05:56:56.885Z,-0.44
2023-03-29T06:01:05.195Z,-0.19
2023-03-29T06:05:22.282Z,0.04
2023-03-29T06:09:27.271Z,0.13
2023-03-29T06:13:52.808Z,0.28
2023-03-29T06:18:05.540Z,0.30
2023-03-29T06:22:14.749Z,0.38
2023-03-29T06:26:33.059Z,0.59
2023-03-29T06:30:38.573Z,0.72
2023-03-29T06:34:49.335Z,0.99
2023-03-29T06:39:42.447Z,1.21
2023-03-29T06:43:56.489Z,1.58
2023-03-29T06:48:00.563Z,1.76
2023-03-29T06:52:26.443Z,1.86
2023-03-29T06:57:05.039Z,1.80
2023-03-29T07:01:10.279Z,2.05
2023-03-29T07:05:14.590Z,2.14
2023-03-29T07:09:20.878Z,2.31
2023-03-29T07:13:31.999Z,2.50
2023-03-29T07:17:44.586Z,2.43
2023-03-29T07:21:56.278Z,2.82
2023-03-29T07:26:28.848Z,2.94
2023-03-29T07:30:33.998Z,2.76
2023-03-29T07:34:53.257Z,2.97
2023-03-29T07:39:16.700Z,3.02
2023-03-29T07:43:26.070Z,3.41
2023-03-29T07:47:33.427Z,3.26
2023-03-29T07:51:44.799Z,3.66
2023-03-29T07:55:57.987Z,4.23
2023-03-29T08:00:52.802Z,4.25
2023-03-29T08:09:25.580Z,4.97
2023-03-29T08:13:35.666Z,4.71
2023-03-29T08:17:49.295Z,5.00
2023-03-29T08:22:15.999Z,5.33
2023-03-29T08:26:29.361Z,5.71
2023-03-29T08:30:36.742Z,5.87
2023-03-29T08:39:16.245Z,5.79
2023-03-29T08:43:50.629Z,6.61
2023-03-29T08:48:08.723Z,6.98
2023-03-29T08:52:38.729Z,6.38
2023-03-29T08:56:49.199Z,6.31
2023-03-29T09:01:04.560Z,6.95
2023-03-29T09:05:47.131Z,7.28
2023-03-29T09:09:56.139Z,7.57
2023-03-29T09:18:57.782Z,7.07
2023-03-29T09:23:26.899Z,7.20
2023-03-29T09:27:33.529Z,7.66
2023-03-29T09:31:43.513Z,8.07
2023-03-29T09:36:13.613Z,8.52
2023-03-29T09:41:24.610Z,9.51
2023-03-29T09:45:33.613Z,9.62
2023-03-29T09:49:53.351Z,8.75
2023-03-29T09:54:13.582Z,9.41
2023-03-29T09:58:33.168Z,9.95
2023-03-29T10:02:58.253Z,9.56
2023-03-29T10:07:36.296Z,10.19
2023-03-29T10:12:10.989Z,9.70
2023-03-29T10:16:44.804Z,9.25
2023-03-29T10:21:06.072Z,9.42
2023-03-29T10:25:16.997Z,9.24
2023-03-29T10:29:28.610Z,9.15
2023-03-29T10:33:35.065Z,9.48
2023-03-29T10:38:06.661Z,9.50
2023-03-29T10:42:23.073Z,10.49
2023-03-29T10:47:20.459Z,10.23
2023-03-29T10:51:34.721Z,9.34
2023-03-29T10:56:36.046Z,9.69
2023-03-29T11:01:11.672Z,11.10
2023-03-29T11:05:18.740Z,11.25
2023-03-29T11:09:47.416Z,12.63
2023-03-29T11:14:09.554Z,13.35
2023-03-29T11:18:57.249Z,14.16
2023-03-29T11:23:34.116Z,13.54
2023-03-29T11:28:05.231Z,13.65
2023-03-29T11:32:48.895Z,12.53
2023-03-29T11:37:08.895Z,12.44
2023-03-29T11:41:58.623Z,12.24
2023-03-29T11:50:58.788Z,13.50
2023-03-29T11:55:29.160Z,15.08
2023-03-29T11:59:42.435Z,14.05
2023-03-29T12:04:45.079Z,14.91
2023-03-29T12:09:10.331Z,14.76
2023-03-29T12:13:46.097Z,15.07
2023-03-29T12:18:17.336Z,14.20
2023-03-29T12:22:20.978Z,15.08
2023-03-29T12:26:53.204Z,14.89
2023-03-29T12:31:07.767Z,14.62
2023-03-29T12:35:33.916Z,14.34
2023-03-29T12:39:38.106Z,14.16
2023-03-29T12:44:04.851Z,13.06
2023-03-29T12:48:15.044Z,12.56
2023-03-29T12:52:34.549Z,12.53
2023-03-29T12:56:42.861Z,13.21
2023-03-29T13:00:48.087Z,12.64
2023-03-29T13:04:52.989Z,12.72
2023-03-29T13:09:20.390Z,13.49
2023-03-29T13:13:37.721Z,12.85
2023-03-29T13:18:06.572Z,14.03
2023-03-29T13:22:56.801Z,14.48
2023-03-29T13:27:14.897Z,12.25
2023-03-29T13:31:29.730Z,11.84
2023-03-29T13:35:51.836Z,12.52
2023-03-29T13:39:55.739Z,11.96
2023-03-29T13:43:58.868Z,12.24
2023-03-29T13:48:30.924Z,11.64
2023-03-29T13:52:44.444Z,12.88
2023-03-29T13:57:16.154Z,12.05
2023-03-29T14:01:57.596Z,12.76
2023-03-29T14:06:02.870Z,12.58
2023-03-29T14:10:06.568Z,11.31
2023-03-29T14:14:10.693Z,11.80
2023-03-29T14:18:17.109Z,11.23
2023-03-29T14:22:21.615Z,11.88
2023-03-29T14:26:25.644Z,11.86
2023-03-29T14:30:29.491Z,12.06
2023-03-29T14:34:33.174Z,11.53
2023-03-29T14:38:37.075Z,11.06
2023-03-29T14:42:39.878Z,10.77
2023-03-29T14:46:45.242Z,10.61
2023-03-29T14:50:48.841Z,10.66
2023-03-29T14:54:56.772Z,11.08
